New Orleans Nas Jrb/Alvin Callender Field/ Airport
KNBG : now visible

Airfield :











YOU CAN JOIN US ON...

 
LOGIN :

Register | Disclaimer

   EN    FR    IT 

 









Legend :    VFR   Marginal VFR   IFR   Intensive IFR   Very Intensive IFR
Visi :
Ceiling :
>= 8 km
>= 3000ft
5 to 8 km
1000 to 3000 ft
1500m to 5 km
500 to 1000 ft
800 to 1500m
200 to 500 ft
< 800m
< 200 ft
Symbols :   Thunderstorms  Fog  Heavy snow  Heavy precipitations  Wind > 20 kt






- Airport Elevation : 2 ft


KNBG - New Orleans Nas Jrb/Alvin Callender Field/

CURRENT METAR :
  • 220355Z 13004KT 10SM SCT035 OVC250 18/17 A3011 RMK AO2 SLP195 T01780167 $

EXPIRED METARs :
  • 220255Z 14006KT 10SM SCT030 BKN250 18/17 A3011 RMK AO2 SLP194 T01780167 50004 $
  • 220155Z 12004KT 10SM FEW040 BKN250 18/16 A3012 RMK AO2 SLP197 T01780161 $

TAF TAF KNBG
Valid from the 21 at 23:00 until the 22 at 23:00 UTC


2123/2223 12006KT 9999 FEW045 BKN180 BKN250 QNH3003INS
BECMG 2207/2209 VRB04KT 4800 BR FEW007 SCT150 BKN250 QNH3000INS
TEMPO 2209/2213 1200 BR SCT007
BECMG 2213/2215 17005KT 9999 NSW FEW015 BKN150 BKN250 QNH2998INS
BECMG 2217/2219 19010KT 9999 SCT015 BKN035 BKN150 QNH2994INS AUTOMATED SENSOR METWATCH 2123 TIL 2211 T11/2212Z T24/2221Z FN20038



MET'MAP, your aeronautical weather chart ! - Copyright ORBIFLY December 2007 - Disclaimer

ORBIFLY MET'MAP TEAM :

Programming & Development : Alexandra Zaïnal
Concept & Development : Baudouin d'Aumeries
Co-Development & Prog : Marc-Olivier Méhu
Technical & hardware support : Manuel Goepfert

Contact : metmap@orbifly.com




SOURCES & CREDITS :

   NOAA       Earth
Advisory